Time,TemperatureF,DewpointF,PressureIn,WindDirection,WindDirectionDegrees,WindSpeedMPH,WindSpeedGustMPH,Humidity,HourlyPrecipIn,Conditions,Clouds,dailyrainin,SoftwareType,DateUTC
2013-03-16 00:00:00,34.2,26.5,29.74,NW,314,4.3,5.7,73,0.00,,CLR,0.00,VWS V14.01,2013-03-16 04:00:00,
2013-03-16 00:05:00,34.3,26.2,29.73,WNW,288,2.8,5.7,72,0.00,,CLR,0.00,VWS V14.01,2013-03-16 04:05:00,
2013-03-16 00:10:00,34.5,26.4,29.74,WNW,283,0.0,2.8,72,0.00,,CLR,0.00,VWS V14.01,2013-03-16 04:10:00,
2013-03-16 00:15:00,34.5,26.4,29.74,WSW,254,1.4,2.8,72,0.00,,CLR,0.00,VWS V14.01,2013-03-16 04:15:00,
2013-03-16 00:20:00,34.3,26.2,29.75,WNW,299,0.0,7.1,72,0.00,,CLR,0.00,VWS V14.01,2013-03-16 04:20:00,
2013-03-16 00:25:00,34.4,26.3,29.74,West,264,0.0,2.8,72,0.00,,CLR,0.00,VWS V14.01,2013-03-16 04:25:00,
2013-03-16 00:30:00,34.2,26.1,29.74,SW,235,1.4,1.4,72,0.00,,CLR,0.00,VWS V14.01,2013-03-16 04:30:00,
2013-03-16 00:35:00,34.0,25.9,29.74,NW,309,0.0,2.8,72,0.00,,CLR,0.00,VWS V14.01,2013-03-16 04:35:00,
2013-03-16 00:40:00,33.9,25.8,29.74,WSW,238,0.0,0.0,72,0.00,,CLR,0.00,VWS V14.01,2013-03-16 04:40:00,
2013-03-16 00:45:00,33.7,26.0,29.74,WSW,240,0.0,2.8,73,0.00,,CLR,0.00,VWS V14.01,2013-03-16 04:45:00,
2013-03-16 00:50:00,33.8,26.1,29.75,WNW,288,0.0,2.8,73,0.00,,CLR,0.00,VWS V14.01,2013-03-16 04:50:00,
2013-03-16 00:55:00,33.6,25.9,29.75,WNW,286,0.0,0.0,73,0.00,,CLR,0.00,VWS V14.01,2013-03-16 04:55:00,
2013-03-16 01:00:00,33.6,25.9,29.74,WSW,255,2.8,2.8,73,0.00,,CLR,0.00,VWS V14.01,2013-03-16 05:00:00,
2013-03-16 01:05:00,33.5,25.8,29.75,NW,326,0.0,0.0,73,0.00,,CLR,0.00,VWS V14.01,2013-03-16 05:05:00,
2013-03-16 01:10:00,33.4,26.0,29.75,WNW,302,0.0,8.5,74,0.00,,CLR,0.00,VWS V14.01,2013-03-16 05:10:00,
2013-03-16 01:15:00,33.6,25.9,29.75,West,266,0.0,0.0,73,0.00,,CLR,0.00,VWS V14.01,2013-03-16 05:15:00,
2013-03-16 01:20:00,33.7,26.0,29.75,WNW,300,0.0,0.0,73,0.00,,CLR,0.00,VWS V14.01,2013-03-16 05:20:00,
2013-03-16 01:25:00,33.8,26.1,29.75,NW,312,0.0,0.0,73,0.00,,CLR,0.00,VWS V14.01,2013-03-16 05:25:00,
2013-03-16 01:30:00,33.8,26.4,29.75,NW,313,0.0,2.8,74,0.00,,CLR,0.00,VWS V14.01,2013-03-16 05:30:00,
2013-03-16 01:35:00,33.9,26.2,29.75,NW,313,0.0,0.0,73,0.00,,CLR,0.00,VWS V14.01,2013-03-16 05:35:00,
2013-03-16 01:40:00,34.0,26.3,29.75,WNW,296,0.0,1.4,73,0.00,,CLR,0.00,VWS V14.01,2013-03-16 05:40:00,
2013-03-16 01:45:00,34.0,26.3,29.75,NW,314,5.7,5.7,73,0.00,,CLR,0.00,VWS V14.01,2013-03-16 05:45:00,
2013-03-16 01:50:00,34.0,25.9,29.76,North,358,1.4,4.3,72,0.00,,CLR,0.00,VWS V14.01,2013-03-16 05:50:00,
2013-03-16 01:55:00,34.0,26.3,29.76,North,354,2.8,7.1,73,0.00,,CLR,0.00,VWS V14.01,2013-03-16 05:55:00,
2013-03-16 02:00:00,33.9,26.5,29.77,NNW,342,0.0,1.4,74,0.00,,CLR,0.00,VWS V14.01,2013-03-16 06:00:00,
2013-03-16 02:05:00,33.9,26.8,29.76,North,352,0.0,11.4,75,0.00,,OVC055,0.00,VWS V14.01,2013-03-16 06:05:00,
2013-03-16 02:10:00,33.9,27.5,29.77,North,356,0.0,0.0,77,0.00,,OVC055,0.00,VWS V14.01,2013-03-16 06:10:00,
2013-03-16 02:15:00,33.9,27.5,29.77,North,357,0.0,4.3,77,0.00,,OVC055,0.00,VWS V14.01,2013-03-16 06:15:00,
2013-03-16 02:20:00,33.9,27.5,29.76,NW,318,5.7,5.7,77,0.00,,OVC055,0.00,VWS V14.01,2013-03-16 06:20:00,
2013-03-16 02:25:00,33.9,27.5,29.76,WNW,298,9.9,9.9,77,0.00,,OVC055,0.00,VWS V14.01,2013-03-16 06:25:00,
2013-03-16 02:30:00,33.9,27.5,29.77,NNW,332,0.0,1.4,77,0.00,,OVC055,0.00,VWS V14.01,2013-03-16 06:30:00,
2013-03-16 02:35:00,33.9,27.5,29.76,NW,307,2.8,4.3,77,0.00,,OVC055,0.00,VWS V14.01,2013-03-16 06:35:00,
2013-03-16 02:40:00,33.7,27.3,29.76,NW,315,0.0,0.0,77,0.00,,OVC055,0.00,VWS V14.01,2013-03-16 06:40:00,
2013-03-16 02:45:00,33.8,27.4,29.76,North,349,0.0,0.0,77,0.00,,OVC055,0.00,VWS V14.01,2013-03-16 06:45:00,
2013-03-16 02:50:00,33.6,26.9,29.77,NW,316,0.0,0.0,76,0.00,,OVC055,0.00,VWS V14.01,2013-03-16 06:50:00,
2013-03-16 02:55:00,33.5,27.1,29.77,WNW,282,0.0,0.0,77,0.00,,OVC055,0.00,VWS V14.01,2013-03-16 06:55:00,
2013-03-16 03:00:00,33.3,26.9,29.77,WNW,282,0.0,2.8,77,0.00,,OVC055,0.00,VWS V14.01,2013-03-16 07:00:00,
2013-03-16 03:05:00,33.3,26.6,29.77,North,349,0.0,2.8,76,0.00,,OVC050,0.00,VWS V14.01,2013-03-16 07:05:00,
2013-03-16 03:10:00,33.2,26.5,29.77,NNW,329,0.0,1.4,76,0.00,,OVC050,0.00,VWS V14.01,2013-03-16 07:10:00,
2013-03-16 03:15:00,33.1,26.0,29.77,North,351,0.0,4.3,75,0.00,,OVC050,0.00,VWS V14.01,2013-03-16 07:15:00,
2013-03-16 03:20:00,32.8,25.8,29.78,NE,39,0.0,7.1,75,0.00,,OVC050,0.00,VWS V14.01,2013-03-16 07:20:00,
2013-03-16 03:25:00,32.7,25.3,29.78,NE,36,1.4,4.3,74,0.00,,OVC050,0.00,VWS V14.01,2013-03-16 07:25:00,
2013-03-16 03:30:00,32.7,25.0,29.78,North,358,0.0,0.0,73,0.00,,OVC050,0.00,VWS V14.01,2013-03-16 07:30:00,
2013-03-16 03:35:00,32.5,24.8,29.78,North,7,0.0,1.4,73,0.00,,OVC050,0.00,VWS V14.01,2013-03-16 07:35:00,
2013-03-16 03:40:00,32.2,24.2,29.78,NNE,16,7.1,7.1,72,0.00,,OVC050,0.00,VWS V14.01,2013-03-16 07:40:00,
2013-03-16 03:45:00,32.2,23.5,29.78,NNE,16,0.0,5.7,70,0.00,,OVC050,0.00,VWS V14.01,2013-03-16 07:45:00,
2013-03-16 03:50:00,32.1,23.1,29.78,NNW,341,0.0,2.8,69,0.00,,OVC050,0.00,VWS V14.01,2013-03-16 07:50:00,
2013-03-16 03:55:00,31.9,22.9,29.78,NNW,345,0.0,9.9,69,0.00,,OVC050,0.00,VWS V14.01,2013-03-16 07:55:00,
2013-03-16 04:00:00,31.9,22.5,29.78,North,356,0.0,9.9,68,0.00,,OVC050,0.00,VWS V14.01,2013-03-16 08:00:00,
2013-03-16 04:05:00,31.7,22.4,29.79,North,355,0.0,1.4,68,0.00,,CLR,0.00,VWS V14.01,2013-03-16 08:05:00,
2013-03-16 04:10:00,31.5,21.8,29.79,NW,322,1.4,4.3,67,0.00,,CLR,0.00,VWS V14.01,2013-03-16 08:10:00,
2013-03-16 04:15:00,31.5,21.5,29.79,North,359,0.0,2.8,66,0.00,,CLR,0.00,VWS V14.01,2013-03-16 08:15:00,
2013-03-16 04:20:00,31.3,21.3,29.78,NNE,13,5.7,5.7,66,0.00,,CLR,0.00,VWS V14.01,2013-03-16 08:20:00,
2013-03-16 04:25:00,31.3,20.9,29.79,NNW,327,5.7,5.7,65,0.00,,CLR,0.00,VWS V14.01,2013-03-16 08:25:00,
2013-03-16 04:30:00,31.3,20.9,29.79,WNW,301,0.0,1.4,65,0.00,,CLR,0.00,VWS V14.01,2013-03-16 08:30:00,
2013-03-16 04:35:00,31.1,20.7,29.80,NW,307,0.0,1.4,65,0.00,,CLR,0.00,VWS V14.01,2013-03-16 08:35:00,
2013-03-16 04:40:00,31.0,20.3,29.79,NNE,28,7.1,7.1,64,0.00,,CLR,0.00,VWS V14.01,2013-03-16 08:40:00,
2013-03-16 04:45:00,31.0,20.6,29.80,NNW,331,0.0,5.7,65,0.00,,CLR,0.00,VWS V14.01,2013-03-16 08:45:00,
2013-03-16 04:50:00,30.8,20.8,29.80,NNE,19,2.8,9.9,66,0.00,,CLR,0.00,VWS V14.01,2013-03-16 08:50:00,
2013-03-16 04:55:00,30.6,20.6,29.80,North,349,0.0,11.4,66,0.00,,CLR,0.00,VWS V14.01,2013-03-16 08:55:00,
2013-03-16 05:00:00,30.7,20.7,29.80,North,4,0.0,1.4,66,0.00,,CLR,0.00,VWS V14.01,2013-03-16 09:00:00,
2013-03-16 05:05:00,30.4,20.8,29.81,North,358,0.0,1.4,67,0.00,,CLR,0.00,VWS V14.01,2013-03-16 09:05:00,
2013-03-16 05:10:00,30.2,20.6,29.81,North,355,0.0,5.7,67,0.00,,CLR,0.00,VWS V14.01,2013-03-16 09:10:00,
2013-03-16 05:15:00,30.0,20.7,29.80,NNW,333,0.0,1.4,68,0.00,,CLR,0.00,VWS V14.01,2013-03-16 09:15:00,
2013-03-16 05:20:00,29.9,21.0,29.81,NW,320,2.8,2.8,69,0.00,,CLR,0.00,VWS V14.01,2013-03-16 09:20:00,
2013-03-16 05:25:00,29.8,20.5,29.81,WSW,254,0.0,0.0,68,0.00,,CLR,0.00,VWS V14.01,2013-03-16 09:25:00,
2013-03-16 05:30:00,29.7,20.5,29.81,WSW,254,0.0,0.0,68,0.00,,CLR,0.00,VWS V14.01,2013-03-16 09:30:00,
2013-03-16 05:35:00,29.5,20.6,29.82,NNE,12,0.0,0.0,69,0.00,,CLR,0.00,VWS V14.01,2013-03-16 09:35:00,
2013-03-16 05:40:00,29.4,20.8,29.82,North,354,0.0,0.0,70,0.00,,CLR,0.00,VWS V14.01,2013-03-16 09:40:00,
2013-03-16 05:45:00,29.2,21.3,29.82,NW,307,0.0,0.0,72,0.00,,CLR,0.00,VWS V14.01,2013-03-16 09:45:00,
2013-03-16 05:50:00,29.1,20.9,29.82,NW,309,0.0,0.0,71,0.00,,CLR,0.00,VWS V14.01,2013-03-16 09:50:00,
2013-03-16 05:55:00,29.1,20.9,29.82,NW,309,0.0,0.0,71,0.00,,CLR,0.00,VWS V14.01,2013-03-16 09:55:00,
2013-03-16 06:00:00,29.1,20.9,29.82,NW,309,0.0,0.0,71,0.00,,CLR,0.00,VWS V14.01,2013-03-16 10:00:00,
2013-03-16 06:05:00,29.1,20.9,29.83,NW,309,0.0,0.0,71,0.00,,CLR,0.00,VWS V14.01,2013-03-16 10:05:00,
2013-03-16 06:10:00,29.0,21.1,29.83,NW,309,0.0,0.0,72,0.00,,CLR,0.00,VWS V14.01,2013-03-16 10:10:00,
2013-03-16 06:15:00,28.8,20.9,29.83,NW,326,0.0,2.8,72,0.00,,CLR,0.00,VWS V14.01,2013-03-16 10:15:00,
2013-03-16 06:20:00,28.8,21.2,29.83,NW,326,0.0,0.0,73,0.00,,CLR,0.00,VWS V14.01,2013-03-16 10:20:00,
2013-03-16 06:25:00,28.7,21.1,29.83,NW,326,0.0,1.4,73,0.00,,CLR,0.00,VWS V14.01,2013-03-16 10:25:00,
2013-03-16 06:30:00,28.7,21.1,29.83,NW,326,0.0,1.4,73,0.00,,CLR,0.00,VWS V14.01,2013-03-16 10:30:00,
2013-03-16 06:35:00,28.7,21.1,29.84,NW,326,0.0,0.0,73,0.00,,CLR,0.00,VWS V14.01,2013-03-16 10:35:00,
2013-03-16 06:40:00,28.7,21.1,29.84,NW,326,0.0,0.0,73,0.00,,CLR,0.00,VWS V14.01,2013-03-16 10:40:00,
2013-03-16 06:45:00,28.6,21.1,29.84,North,359,0.0,0.0,73,0.00,,CLR,0.00,VWS V14.01,2013-03-16 10:45:00,
2013-03-16 06:50:00,28.8,21.2,29.84,NNE,16,0.0,0.0,73,0.00,,CLR,0.00,VWS V14.01,2013-03-16 10:50:00,
2013-03-16 06:55:00,28.7,21.1,29.84,North,358,2.8,2.8,73,0.00,,CLR,0.00,VWS V14.01,2013-03-16 10:55:00,
2013-03-16 07:00:00,28.6,21.4,29.84,West,264,0.0,0.0,74,0.00,,CLR,0.00,VWS V14.01,2013-03-16 11:00:00,
2013-03-16 07:05:00,28.6,21.4,29.84,West,263,0.0,0.0,74,0.00,,CLR,0.00,VWS V14.01,2013-03-16 11:05:00,
2013-03-16 07:10:00,28.6,21.7,29.84,West,266,0.0,0.0,75,0.00,,CLR,0.00,VWS V14.01,2013-03-16 11:10:00,
2013-03-16 07:15:00,28.5,21.3,29.84,West,264,0.0,0.0,74,0.00,,CLR,0.00,VWS V14.01,2013-03-16 11:15:00,
2013-03-16 07:20:00,28.4,21.2,29.84,West,265,0.0,0.0,74,0.00,,CLR,0.00,VWS V14.01,2013-03-16 11:20:00,
2013-03-16 07:25:00,28.4,21.5,29.84,West,264,0.0,0.0,75,0.00,,CLR,0.00,VWS V14.01,2013-03-16 11:25:00,
2013-03-16 07:30:00,28.4,21.5,29.85,West,264,0.0,0.0,75,0.00,,CLR,0.00,VWS V14.01,2013-03-16 11:30:00,
2013-03-16 07:35:00,28.4,21.8,29.85,NNW,339,0.0,0.0,76,0.00,,CLR,0.00,VWS V14.01,2013-03-16 11:35:00,
2013-03-16 07:40:00,28.4,21.8,29.85,North,354,0.0,0.0,76,0.00,,CLR,0.00,VWS V14.01,2013-03-16 11:40:00,
2013-03-16 07:45:00,28.4,21.5,29.85,North,357,0.0,0.0,75,0.00,,CLR,0.00,VWS V14.01,2013-03-16 11:45:00,
2013-03-16 07:50:00,28.4,21.8,29.85,North,357,0.0,0.0,76,0.00,,CLR,0.00,VWS V14.01,2013-03-16 11:50:00,
2013-03-16 07:55:00,28.4,21.5,29.85,North,357,0.0,1.4,75,0.00,,CLR,0.00,VWS V14.01,2013-03-16 11:55:00,
2013-03-16 08:00:00,28.7,21.8,29.85,North,350,0.0,0.0,75,0.00,,CLR,0.00,VWS V14.01,2013-03-16 12:00:00,
2013-03-16 08:05:00,28.8,21.2,29.85,North,359,0.0,0.0,73,0.00,,BKN120,0.00,VWS V14.01,2013-03-16 12:05:00,
2013-03-16 08:10:00,29.1,21.2,29.85,SW,227,0.0,1.4,72,0.00,,BKN120,0.00,VWS V14.01,2013-03-16 12:10:00,
2013-03-16 08:15:00,29.4,21.5,29.85,North,357,0.0,0.0,72,0.00,,BKN120,0.00,VWS V14.01,2013-03-16 12:15:00,
2013-03-16 08:20:00,29.7,21.1,29.85,North,352,0.0,0.0,70,0.00,,BKN120,0.00,VWS V14.01,2013-03-16 12:20:00,
2013-03-16 08:25:00,30.0,21.1,29.86,NNW,340,8.5,8.5,69,0.00,,BKN120,0.00,VWS V14.01,2013-03-16 12:25:00,
2013-03-16 08:30:00,30.0,20.4,29.85,NNW,331,0.0,2.8,67,0.00,,BKN120,0.00,VWS V14.01,2013-03-16 12:30:00,
2013-03-16 08:35:00,30.0,19.7,29.85,North,3,1.4,8.5,65,0.00,,BKN120,0.00,VWS V14.01,2013-03-16 12:35:00,
2013-03-16 08:40:00,30.1,19.8,29.85,NE,47,4.3,8.5,65,0.00,,BKN120,0.00,VWS V14.01,2013-03-16 12:40:00,
2013-03-16 08:45:00,30.1,18.7,29.85,North,357,1.4,1.4,62,0.00,,BKN120,0.00,VWS V14.01,2013-03-16 12:45:00,
2013-03-16 08:50:00,30.3,18.5,29.86,NNE,15,0.0,4.3,61,0.00,,BKN120,0.00,VWS V14.01,2013-03-16 12:50:00,
2013-03-16 08:55:00,30.4,18.2,29.86,North,5,0.0,4.3,60,0.00,,BKN120,0.00,VWS V14.01,2013-03-16 12:55:00,
2013-03-16 09:00:00,30.9,19.0,29.86,North,354,8.5,8.5,61,0.00,,BKN120,0.00,VWS V14.01,2013-03-16 13:00:00,
2013-03-16 09:05:00,31.2,18.2,29.86,NNE,30,4.3,9.9,58,0.00,,BKN100,0.00,VWS V14.01,2013-03-16 13:05:00,
2013-03-16 09:10:00,30.9,17.5,29.86,NNE,26,2.8,15.6,57,0.00,,BKN100,0.00,VWS V14.01,2013-03-16 13:10:00,
2013-03-16 09:15:00,31.0,18.0,29.86,WNW,299,0.0,0.0,58,0.00,,BKN100,0.00,VWS V14.01,2013-03-16 13:15:00,
2013-03-16 09:20:00,31.2,17.3,29.86,NW,315,0.0,2.8,56,0.00,,BKN100,0.00,VWS V14.01,2013-03-16 13:20:00,
2013-03-16 09:25:00,31.3,16.6,29.85,NE,42,5.7,5.7,54,0.00,,BKN100,0.00,VWS V14.01,2013-03-16 13:25:00,
2013-03-16 09:30:00,31.2,16.1,29.86,North,352,2.8,9.9,53,0.00,,BKN100,0.00,VWS V14.01,2013-03-16 13:30:00,
2013-03-16 09:35:00,31.2,16.9,29.86,NW,321,1.4,2.8,55,0.00,,BKN100,0.00,VWS V14.01,2013-03-16 13:35:00,
2013-03-16 09:40:00,31.5,16.4,29.86,North,352,4.3,7.1,53,0.00,,BKN100,0.00,VWS V14.01,2013-03-16 13:40:00,
2013-03-16 09:45:00,31.7,16.5,29.85,NNE,12,0.0,8.5,53,0.00,,BKN100,0.00,VWS V14.01,2013-03-16 13:45:00,
2013-03-16 09:50:00,31.7,15.7,29.85,WNW,288,2.8,11.4,51,0.00,,BKN100,0.00,VWS V14.01,2013-03-16 13:50:00,
2013-03-16 09:55:00,31.6,15.6,29.86,NNE,28,5.7,14.2,51,0.00,,BKN100,0.00,VWS V14.01,2013-03-16 13:55:00,
2013-03-16 10:00:00,31.6,15.1,29.85,North,355,1.4,2.8,50,0.00,,BKN100,0.00,VWS V14.01,2013-03-16 14:00:00,
2013-03-16 10:05:00,31.7,15.2,29.85,NNW,347,4.3,4.3,50,0.00,,SCT090,0.00,VWS V14.01,2013-03-16 14:05:00,
2013-03-16 10:10:00,32.2,15.7,29.85,NNW,338,9.9,9.9,50,0.00,,SCT090,0.00,VWS V14.01,2013-03-16 14:10:00,
2013-03-16 10:15:00,32.2,14.7,29.85,NE,34,0.0,11.4,48,0.00,,SCT090,0.00,VWS V14.01,2013-03-16 14:15:00,
2013-03-16 10:20:00,32.5,15.5,29.85,North,355,5.7,11.4,49,0.00,,SCT090,0.00,VWS V14.01,2013-03-16 14:20:00,
2013-03-16 10:25:00,32.6,15.6,29.85,NNE,22,7.1,9.9,49,0.00,,SCT090,0.00,VWS V14.01,2013-03-16 14:25:00,
2013-03-16 10:30:00,32.5,15.0,29.85,North,11,0.0,11.4,48,0.00,,SCT090,0.00,VWS V14.01,2013-03-16 14:30:00,
2013-03-16 10:35:00,32.5,15.0,29.84,North,1,1.4,1.4,48,0.00,,SCT090,0.00,VWS V14.01,2013-03-16 14:35:00,
2013-03-16 10:40:00,33.1,15.6,29.84,WSW,255,0.0,4.3,48,0.00,,SCT090,0.00,VWS V14.01,2013-03-16 14:40:00,
2013-03-16 10:45:00,33.7,15.6,29.84,NW,322,4.3,5.7,47,0.00,,SCT090,0.00,VWS V14.01,2013-03-16 14:45:00,
2013-03-16 10:50:00,33.8,16.2,29.84,NNE,12,1.4,9.9,48,0.00,,SCT090,0.00,VWS V14.01,2013-03-16 14:50:00,
2013-03-16 10:55:00,33.1,15.6,29.83,North,9,0.0,11.4,48,0.00,,SCT090,0.00,VWS V14.01,2013-03-16 14:55:00,
2013-03-16 11:00:00,32.8,15.3,29.83,NNE,31,4.3,11.4,48,0.00,,SCT090,0.00,VWS V14.01,2013-03-16 15:00:00,
2013-03-16 11:05:00,32.9,16.3,29.84,North,10,2.8,8.5,50,0.00,,FEW090,0.00,VWS V14.01,2013-03-16 15:05:00,
2013-03-16 11:10:00,32.9,15.4,29.84,North,359,1.4,2.8,48,0.00,,FEW090,0.00,VWS V14.01,2013-03-16 15:10:00,
2013-03-16 11:15:00,33.2,15.6,29.84,NW,321,2.8,7.1,48,0.00,,FEW090,0.00,VWS V14.01,2013-03-16 15:15:00,
2013-03-16 11:20:00,32.7,14.7,29.83,NNE,21,2.8,8.5,47,0.00,,FEW090,0.00,VWS V14.01,2013-03-16 15:20:00,
2013-03-16 11:25:00,32.4,14.4,29.83,NNW,332,1.4,5.7,47,0.00,,FEW090,0.00,VWS V14.01,2013-03-16 15:25:00,
2013-03-16 11:30:00,32.7,15.2,29.83,WNW,289,0.0,1.4,48,0.00,,FEW090,0.00,VWS V14.01,2013-03-16 15:30:00,
2013-03-16 11:35:00,33.2,15.2,29.83,NNE,27,0.0,1.4,47,0.00,,FEW090,0.00,VWS V14.01,2013-03-16 15:35:00,
2013-03-16 11:40:00,33.3,15.7,29.83,NNE,26,7.1,11.4,48,0.00,,FEW090,0.00,VWS V14.01,2013-03-16 15:40:00,
2013-03-16 11:45:00,33.3,16.2,29.82,NNE,31,7.1,8.5,49,0.00,,FEW090,0.00,VWS V14.01,2013-03-16 15:45:00,
2013-03-16 11:50:00,33.4,15.4,29.82,WNW,284,8.5,9.9,47,0.00,,FEW090,0.00,VWS V14.01,2013-03-16 15:50:00,
2013-03-16 11:55:00,33.0,15.0,29.82,NNE,24,0.0,5.7,47,0.00,,FEW090,0.00,VWS V14.01,2013-03-16 15:55:00,
2013-03-16 12:00:00,33.5,15.9,29.82,SSW,212,0.0,1.4,48,0.00,,FEW090,0.00,VWS V14.01,2013-03-16 16:00:00,
2013-03-16 12:05:00,33.8,15.7,29.82,SSW,210,1.4,2.8,47,0.00,,SCT095,0.00,VWS V14.01,2013-03-16 16:05:00,
2013-03-16 12:10:00,34.3,15.7,29.82,NNE,15,2.8,8.5,46,0.00,,SCT095,0.00,VWS V14.01,2013-03-16 16:10:00,
2013-03-16 12:15:00,34.6,16.0,29.82,SSE,149,0.0,4.3,46,0.00,,SCT095,0.00,VWS V14.01,2013-03-16 16:15:00,
2013-03-16 12:20:00,34.7,15.6,29.82,ENE,57,1.4,2.8,45,0.00,,SCT095,0.00,VWS V14.01,2013-03-16 16:20:00,
2013-03-16 12:25:00,35.9,17.1,29.82,North,3,1.4,2.8,46,0.00,,SCT095,0.00,VWS V14.01,2013-03-16 16:25:00,
2013-03-16 12:30:00,36.3,16.5,29.81,North,358,0.0,4.3,44,0.00,,SCT095,0.00,VWS V14.01,2013-03-16 16:30:00,
2013-03-16 12:35:00,36.1,16.3,29.81,ENE,75,0.0,1.4,44,0.00,,SCT095,0.00,VWS V14.01,2013-03-16 16:35:00,
2013-03-16 12:40:00,36.3,15.4,29.81,North,3,4.3,7.1,42,0.00,,SCT095,0.00,VWS V14.01,2013-03-16 16:40:00,
2013-03-16 12:45:00,36.0,15.1,29.82,NW,323,0.0,1.4,42,0.00,,SCT095,0.00,VWS V14.01,2013-03-16 16:45:00,
2013-03-16 12:50:00,35.6,14.2,29.81,SSE,167,0.0,5.7,41,0.00,,SCT095,0.00,VWS V14.01,2013-03-16 16:50:00,
2013-03-16 12:55:00,35.4,15.1,29.81,SSW,212,0.0,2.8,43,0.00,,SCT095,0.00,VWS V14.01,2013-03-16 16:55:00,
2013-03-16 13:00:00,35.9,16.1,29.81,North,9,0.0,2.8,44,0.00,,SCT095,0.00,VWS V14.01,2013-03-16 17:00:00,
2013-03-16 13:05:00,36.3,16.0,29.81,SW,224,0.0,5.7,43,0.00,,FEW085,0.00,VWS V14.01,2013-03-16 17:05:00,
2013-03-16 13:10:00,36.4,15.5,29.81,SW,221,0.0,0.0,42,0.00,,FEW085,0.00,VWS V14.01,2013-03-16 17:10:00,
2013-03-16 13:15:00,36.6,16.2,29.82,ENE,65,1.4,4.3,43,0.00,,FEW085,0.00,VWS V14.01,2013-03-16 17:15:00,
2013-03-16 13:20:00,36.0,16.2,29.82,West,271,0.0,2.8,44,0.00,,FEW085,0.00,VWS V14.01,2013-03-16 17:20:00,
2013-03-16 13:25:00,36.4,16.0,29.81,North,356,2.8,4.3,43,0.00,,FEW085,0.00,VWS V14.01,2013-03-16 17:25:00,
2013-03-16 13:30:00,36.4,16.6,29.81,WNW,303,0.0,2.8,44,0.00,,FEW085,0.00,VWS V14.01,2013-03-16 17:30:00,
2013-03-16 13:35:00,36.6,16.2,29.81,SSW,202,1.4,4.3,43,0.00,,FEW085,0.00,VWS V14.01,2013-03-16 17:35:00,
2013-03-16 13:40:00,36.6,16.2,29.81,WSW,247,2.8,4.3,43,0.00,,FEW085,0.00,VWS V14.01,2013-03-16 17:40:00,
2013-03-16 13:45:00,37.3,17.9,29.81,WNW,286,0.0,0.0,45,0.00,,FEW085,0.00,VWS V14.01,2013-03-16 17:45:00,
2013-03-16 13:50:00,37.5,17.6,29.80,West,279,4.3,4.3,44,0.00,,FEW085,0.00,VWS V14.01,2013-03-16 17:50:00,
2013-03-16 13:55:00,37.6,17.7,29.80,NW,308,0.0,1.4,44,0.00,,FEW085,0.00,VWS V14.01,2013-03-16 17:55:00,
2013-03-16 14:00:00,37.1,16.1,29.79,NNW,336,0.0,1.4,42,0.00,,FEW085,0.00,VWS V14.01,2013-03-16 18:00:00,
2013-03-16 14:05:00,36.7,16.3,29.80,North,349,0.0,7.1,43,0.00,,BKN090,0.00,VWS V14.01,2013-03-16 18:05:00,
2013-03-16 14:10:00,36.7,16.3,29.79,NW,321,0.0,4.3,43,0.00,,BKN090,0.00,VWS V14.01,2013-03-16 18:10:00,
2013-03-16 14:15:00,36.9,17.0,29.80,NE,47,0.0,1.4,44,0.00,,BKN090,0.00,VWS V14.01,2013-03-16 18:15:00,
2013-03-16 14:20:00,37.6,17.1,29.80,WNW,285,2.8,2.8,43,0.00,,BKN090,0.00,VWS V14.01,2013-03-16 18:20:00,
2013-03-16 14:25:00,37.3,16.3,29.79,WSW,249,1.4,4.3,42,0.00,,BKN090,0.00,VWS V14.01,2013-03-16 18:25:00,
2013-03-16 14:30:00,37.1,16.1,29.80,NW,320,2.8,5.7,42,0.00,,BKN090,0.00,VWS V14.01,2013-03-16 18:30:00,
2013-03-16 14:35:00,36.9,16.0,29.79,WSW,251,2.8,2.8,42,0.00,,BKN090,0.00,VWS V14.01,2013-03-16 18:35:00,
2013-03-16 14:40:00,36.4,16.0,29.79,SSE,159,0.0,0.0,43,0.00,,BKN090,0.00,VWS V14.01,2013-03-16 18:40:00,
2013-03-16 14:45:00,36.7,17.4,29.80,SE,142,0.0,0.0,45,0.00,,BKN090,0.00,VWS V14.01,2013-03-16 18:45:00,
2013-03-16 14:50:00,36.9,16.5,29.80,SSE,147,1.4,5.7,43,0.00,,BKN090,0.00,VWS V14.01,2013-03-16 18:50:00,
2013-03-16 14:55:00,36.6,15.7,29.80,SE,131,0.0,0.0,42,0.00,,BKN090,0.00,VWS V14.01,2013-03-16 18:55:00,
2013-03-16 15:00:00,36.7,16.9,29.80,SE,133,0.0,0.0,44,0.00,,BKN090,0.00,VWS V14.01,2013-03-16 19:00:00,
2013-03-16 15:05:00,37.0,16.1,29.80,SE,146,0.0,2.8,42,0.00,,FEW060,0.00,VWS V14.01,2013-03-16 19:05:00,
2013-03-16 15:10:00,36.4,18.1,29.80,ESE,117,7.1,7.1,47,0.00,,FEW060,0.00,VWS V14.01,2013-03-16 19:10:00,
2013-03-16 15:15:00,35.7,18.4,29.80,SSE,158,2.8,8.5,49,0.00,,FEW060,0.00,VWS V14.01,2013-03-16 19:15:00,
2013-03-16 15:20:00,34.9,19.5,29.80,ESE,120,5.7,9.9,53,0.00,,FEW060,0.00,VWS V14.01,2013-03-16 19:20:00,
2013-03-16 15:25:00,34.4,19.5,29.80,ESE,119,1.4,8.5,54,0.00,,FEW060,0.00,VWS V14.01,2013-03-16 19:25:00,
2013-03-16 15:30:00,34.1,19.6,29.79,SSE,148,2.8,8.5,55,0.00,,FEW060,0.00,VWS V14.01,2013-03-16 19:30:00,
2013-03-16 15:35:00,34.0,19.5,29.80,SSE,158,1.4,8.5,55,0.00,,FEW060,0.00,VWS V14.01,2013-03-16 19:35:00,
2013-03-16 15:40:00,34.1,20.5,29.79,SE,138,8.5,9.9,57,0.00,,FEW060,0.00,VWS V14.01,2013-03-16 19:40:00,
2013-03-16 15:45:00,34.2,20.6,29.79,ESE,120,5.7,11.4,57,0.00,,FEW060,0.00,VWS V14.01,2013-03-16 19:45:00,
2013-03-16 15:50:00,34.2,21.8,29.79,SE,140,5.7,12.8,60,0.00,,FEW060,0.00,VWS V14.01,2013-03-16 19:50:00,
2013-03-16 15:55:00,33.2,25.2,29.78,ESE,120,9.9,15.6,72,0.00,,FEW060,0.00,VWS V14.01,2013-03-16 19:55:00,
2013-03-16 16:00:00,32.2,26.1,29.79,SSE,160,5.7,11.4,78,0.00,,FEW060,0.00,VWS V14.01,2013-03-16 20:00:00,
2013-03-16 16:05:00,31.9,26.4,29.79,ESE,115,4.3,12.8,80,0.00,,CLR,0.00,VWS V14.01,2013-03-16 20:05:00,
2013-03-16 16:10:00,31.6,26.8,29.80,SSE,147,0.0,5.7,82,0.00,,CLR,0.00,VWS V14.01,2013-03-16 20:10:00,
2013-03-16 16:15:00,31.4,26.2,29.80,SSE,153,8.5,14.2,81,0.00,,CLR,0.00,VWS V14.01,2013-03-16 20:15:00,
2013-03-16 16:20:00,31.2,26.1,29.79,WSW,247,5.7,8.5,81,0.00,,CLR,0.00,VWS V14.01,2013-03-16 20:20:00,
2013-03-16 16:25:00,31.0,26.5,29.79,SSW,208,2.8,7.1,83,0.00,,CLR,0.00,VWS V14.01,2013-03-16 20:25:00,
2013-03-16 16:30:00,31.0,26.7,29.78,SSW,194,1.4,7.1,84,0.00,,CLR,0.00,VWS V14.01,2013-03-16 20:30:00,
2013-03-16 16:35:00,31.0,26.7,29.79,SW,220,5.7,9.9,84,0.00,,CLR,0.00,VWS V14.01,2013-03-16 20:35:00,
2013-03-16 16:40:00,30.9,26.9,29.78,SW,220,0.0,4.3,85,0.00,,CLR,0.00,VWS V14.01,2013-03-16 20:40:00,
2013-03-16 16:45:00,30.9,27.2,29.78,SSW,197,4.3,8.5,86,0.00,,CLR,0.00,VWS V14.01,2013-03-16 20:45:00,
2013-03-16 16:50:00,30.9,27.2,29.78,SSW,205,2.8,9.9,86,0.00,,CLR,0.00,VWS V14.01,2013-03-16 20:50:00,
2013-03-16 16:55:00,30.7,27.3,29.78,SSW,205,0.0,5.7,87,0.00,,CLR,0.00,VWS V14.01,2013-03-16 20:55:00,
2013-03-16 17:00:00,30.7,27.3,29.78,SW,236,8.5,8.5,87,0.00,,CLR,0.00,VWS V14.01,2013-03-16 21:00:00,
2013-03-16 17:05:00,30.6,27.2,29.78,SW,217,2.8,8.5,87,0.00,,FEW070,0.00,VWS V14.01,2013-03-16 21:05:00,
2013-03-16 17:10:00,30.6,27.2,29.78,SW,229,4.3,7.1,87,0.00,,FEW070,0.00,VWS V14.01,2013-03-16 21:10:00,
2013-03-16 17:15:00,30.6,27.5,29.77,South,187,0.0,2.8,88,0.00,,FEW070,0.00,VWS V14.01,2013-03-16 21:15:00,
2013-03-16 17:20:00,30.6,27.8,29.77,SW,216,7.1,8.5,89,0.00,,FEW070,0.00,VWS V14.01,2013-03-16 21:20:00,
2013-03-16 17:25:00,30.6,28.0,29.78,WSW,257,1.4,8.5,90,0.00,,FEW070,0.00,VWS V14.01,2013-03-16 21:25:00,
2013-03-16 17:30:00,30.4,27.8,29.78,SSW,210,7.1,7.1,90,0.00,,FEW070,0.00,VWS V14.01,2013-03-16 21:30:00,
2013-03-16 17:35:00,30.4,28.4,29.79,SW,226,4.3,8.5,92,0.00,,FEW070,0.00,VWS V14.01,2013-03-16 21:35:00,
2013-03-16 17:40:00,30.5,28.5,29.79,SSW,207,0.0,5.7,92,0.00,,FEW070,0.00,VWS V14.01,2013-03-16 21:40:00,
2013-03-16 17:45:00,30.4,28.4,29.79,WSW,238,4.3,7.1,92,0.00,,FEW070,0.00,VWS V14.01,2013-03-16 21:45:00,
2013-03-16 17:50:00,30.5,28.5,29.79,WSW,254,0.0,5.7,92,0.00,,FEW070,0.00,VWS V14.01,2013-03-16 21:50:00,
2013-03-16 17:55:00,30.4,28.4,29.79,SW,216,0.0,0.0,92,0.00,,FEW070,0.00,VWS V14.01,2013-03-16 21:55:00,
2013-03-16 18:00:00,30.6,28.8,29.79,SSW,208,0.0,1.4,93,0.00,,FEW070,0.00,VWS V14.01,2013-03-16 22:00:00,
2013-03-16 18:05:00,30.6,29.1,29.80,SSW,205,1.4,2.8,94,0.00,,CLR,0.00,VWS V14.01,2013-03-16 22:05:00,
2013-03-16 18:10:00,30.5,29.0,29.79,West,264,1.4,4.3,94,0.00,,CLR,0.00,VWS V14.01,2013-03-16 22:10:00,
2013-03-16 18:15:00,30.3,28.5,29.79,SW,229,0.0,0.0,93,0.00,,CLR,0.00,VWS V14.01,2013-03-16 22:15:00,
2013-03-16 18:20:00,30.3,28.8,29.79,SW,236,0.0,1.4,94,0.00,,CLR,0.00,VWS V14.01,2013-03-16 22:20:00,
2013-03-16 18:25:00,30.4,28.9,29.78,SW,236,0.0,0.0,94,0.00,,CLR,0.00,VWS V14.01,2013-03-16 22:25:00,
2013-03-16 18:30:00,30.6,29.3,29.80,SW,236,0.0,0.0,95,0.00,,CLR,0.00,VWS V14.01,2013-03-16 22:30:00,
2013-03-16 18:35:00,30.4,28.9,29.80,WSW,240,1.4,7.1,94,0.00,,CLR,0.00,VWS V14.01,2013-03-16 22:35:00,
2013-03-16 18:40:00,30.4,28.9,29.80,WSW,238,0.0,0.0,94,0.00,,CLR,0.00,VWS V14.01,2013-03-16 22:40:00,
2013-03-16 18:45:00,30.5,29.2,29.80,WNW,296,0.0,0.0,95,0.00,,CLR,0.00,VWS V14.01,2013-03-16 22:45:00,
2013-03-16 18:50:00,30.4,29.1,29.80,SW,214,0.0,4.3,95,0.00,,CLR,0.00,VWS V14.01,2013-03-16 22:50:00,
2013-03-16 18:55:00,30.3,29.0,29.80,SW,218,0.0,4.3,95,0.00,,CLR,0.00,VWS V14.01,2013-03-16 22:55:00,
2013-03-16 19:00:00,30.3,28.8,29.81,SW,218,0.0,1.4,94,0.00,,CLR,0.00,VWS V14.01,2013-03-16 23:00:00,
2013-03-16 19:05:00,30.3,29.0,29.81,SW,218,2.8,2.8,95,0.00,,SCT049,0.00,VWS V14.01,2013-03-16 23:05:00,
2013-03-16 19:10:00,30.4,29.1,29.81,SW,218,0.0,0.0,95,0.00,,SCT049,0.00,VWS V14.01,2013-03-16 23:10:00,
2013-03-16 19:15:00,30.3,29.0,29.81,SW,218,0.0,0.0,95,0.00,,SCT049,0.00,VWS V14.01,2013-03-16 23:15:00,
2013-03-16 19:20:00,30.3,29.0,29.81,SW,218,1.4,1.4,95,0.00,,SCT049,0.00,VWS V14.01,2013-03-16 23:20:00,
2013-03-16 19:25:00,30.2,28.7,29.81,SW,218,0.0,0.0,94,0.00,,SCT049,0.00,VWS V14.01,2013-03-16 23:25:00,
2013-03-16 19:30:00,30.2,28.9,29.81,SW,218,0.0,0.0,95,0.00,,SCT049,0.00,VWS V14.01,2013-03-16 23:30:00,
2013-03-16 19:35:00,30.3,29.0,29.81,SW,218,0.0,0.0,95,0.00,,SCT049,0.00,VWS V14.01,2013-03-16 23:35:00,
2013-03-16 19:40:00,30.3,29.0,29.81,SW,218,0.0,0.0,95,0.00,,SCT049,0.00,VWS V14.01,2013-03-16 23:40:00,
2013-03-16 19:45:00,30.3,29.0,29.81,SW,218,0.0,0.0,95,0.00,,SCT049,0.00,VWS V14.01,2013-03-16 23:45:00,
2013-03-16 19:50:00,30.3,29.0,29.82,SW,218,0.0,0.0,95,0.00,,SCT049,0.00,VWS V14.01,2013-03-16 23:50:00,
2013-03-16 19:55:00,30.3,29.3,29.82,SW,218,0.0,0.0,96,0.00,,SCT049,0.00,VWS V14.01,2013-03-16 23:55:00,
2013-03-16 20:00:00,30.3,29.0,29.81,SW,218,0.0,0.0,95,0.00,,SCT049,0.00,VWS V14.01,2013-03-17 00:00:00,
2013-03-16 20:05:00,30.3,29.3,29.81,SW,218,0.0,0.0,96,0.00,,OVC045,0.00,VWS V14.01,2013-03-17 00:05:00,
2013-03-16 20:10:00,30.3,29.3,29.82,SW,218,0.0,0.0,96,0.00,,OVC045,0.00,VWS V14.01,2013-03-17 00:10:00,
2013-03-16 20:15:00,30.3,29.5,29.82,SW,218,0.0,0.0,97,0.00,,OVC045,0.00,VWS V14.01,2013-03-17 00:15:00,
2013-03-16 20:20:00,30.3,29.3,29.82,SW,218,0.0,0.0,96,0.00,,OVC045,0.00,VWS V14.01,2013-03-17 00:20:00,
2013-03-16 20:25:00,30.2,29.2,29.82,SW,218,0.0,0.0,96,0.00,,OVC045,0.00,VWS V14.01,2013-03-17 00:25:00,
2013-03-16 20:30:00,30.3,29.3,29.83,SW,218,0.0,0.0,96,0.00,,OVC045,0.00,VWS V14.01,2013-03-17 00:30:00,
2013-03-16 20:35:00,30.3,29.5,29.83,SW,218,0.0,0.0,97,0.00,,OVC045,0.00,VWS V14.01,2013-03-17 00:35:00,
2013-03-16 20:40:00,30.4,29.6,29.83,SW,218,0.0,0.0,97,0.00,,OVC045,0.00,VWS V14.01,2013-03-17 00:40:00,
2013-03-16 20:45:00,30.5,29.8,29.83,SW,218,0.0,0.0,97,0.00,,OVC045,0.00,VWS V14.01,2013-03-17 00:45:00,
2013-03-16 20:50:00,30.4,29.6,29.84,SW,218,0.0,0.0,97,0.00,,OVC045,0.00,VWS V14.01,2013-03-17 00:50:00,
2013-03-16 20:55:00,30.3,29.5,29.84,SW,218,0.0,0.0,97,0.00,,OVC045,0.00,VWS V14.01,2013-03-17 00:55:00,
2013-03-16 21:00:00,30.3,29.5,29.84,SW,218,0.0,1.4,97,0.00,,OVC045,0.00,VWS V14.01,2013-03-17 01:00:00,
2013-03-16 21:05:00,30.3,29.5,29.84,SW,218,0.0,0.0,97,0.00,,BKN045,0.00,VWS V14.01,2013-03-17 01:05:00,
2013-03-16 21:10:00,30.3,29.8,29.84,SW,218,0.0,0.0,98,0.00,,BKN045,0.00,VWS V14.01,2013-03-17 01:10:00,
2013-03-16 21:15:00,30.3,29.8,29.84,SW,218,0.0,0.0,98,0.00,,BKN045,0.00,VWS V14.01,2013-03-17 01:15:00,
2013-03-16 21:20:00,30.5,30.0,29.84,SW,218,0.0,0.0,98,0.00,,BKN045,0.00,VWS V14.01,2013-03-17 01:20:00,
2013-03-16 21:25:00,30.3,29.8,29.84,SW,218,0.0,0.0,98,0.00,,BKN045,0.00,VWS V14.01,2013-03-17 01:25:00,
2013-03-16 21:30:00,30.4,29.9,29.84,SW,218,0.0,0.0,98,0.00,,BKN045,0.00,VWS V14.01,2013-03-17 01:30:00,
2013-03-16 21:35:00,30.3,29.8,29.85,SW,218,0.0,1.4,98,0.00,,BKN045,0.00,VWS V14.01,2013-03-17 01:35:00,
2013-03-16 21:40:00,30.3,29.8,29.85,SW,218,0.0,0.0,98,0.00,,BKN045,0.00,VWS V14.01,2013-03-17 01:40:00,
2013-03-16 21:45:00,30.3,29.8,29.86,SW,218,0.0,0.0,98,0.00,,BKN045,0.00,VWS V14.01,2013-03-17 01:45:00,
2013-03-16 21:50:00,30.3,29.8,29.86,SW,218,0.0,0.0,98,0.00,,BKN045,0.00,VWS V14.01,2013-03-17 01:50:00,
2013-03-16 21:55:00,30.3,30.0,29.86,SW,218,1.4,1.4,99,0.00,,BKN045,0.00,VWS V14.01,2013-03-17 01:55:00,
2013-03-16 22:00:00,30.2,29.7,29.86,SW,218,0.0,2.8,98,0.00,,BKN045,0.00,VWS V14.01,2013-03-17 02:00:00,
2013-03-16 22:05:00,30.2,29.7,29.86,SW,218,0.0,0.0,98,0.00,,,0.00,VWS V14.01,2013-03-17 02:05:00,
2013-03-16 22:10:00,30.2,30.0,29.86,SW,218,0.0,0.0,99,0.00,,,0.00,VWS V14.01,2013-03-17 02:10:00,
2013-03-16 22:15:00,30.2,29.7,29.86,SW,218,0.0,0.0,98,0.00,,,0.00,VWS V14.01,2013-03-17 02:15:00,
2013-03-16 22:20:00,30.2,30.0,29.86,SW,218,0.0,0.0,99,0.00,,,0.00,VWS V14.01,2013-03-17 02:20:00,
2013-03-16 22:25:00,30.2,30.0,29.86,SW,218,0.0,0.0,99,0.00,,,0.00,VWS V14.01,2013-03-17 02:25:00,
2013-03-16 22:30:00,30.3,30.0,29.86,SW,218,0.0,0.0,99,0.00,,,0.00,VWS V14.01,2013-03-17 02:30:00,
2013-03-16 22:35:00,30.2,29.7,29.87,SW,218,0.0,0.0,98,0.00,,,0.00,VWS V14.01,2013-03-17 02:35:00,
2013-03-16 22:40:00,30.3,30.0,29.87,SW,218,0.0,0.0,99,0.00,,,0.00,VWS V14.01,2013-03-17 02:40:00,
2013-03-16 22:45:00,30.3,30.0,29.87,SW,218,0.0,0.0,99,0.00,,,0.00,VWS V14.01,2013-03-17 02:45:00,
2013-03-16 22:50:00,30.2,30.0,29.87,SW,218,0.0,0.0,99,0.00,,,0.00,VWS V14.01,2013-03-17 02:50:00,
2013-03-16 22:55:00,30.2,29.7,29.87,SW,218,0.0,0.0,98,0.00,,,0.00,VWS V14.01,2013-03-17 02:55:00,
2013-03-16 23:00:00,30.3,30.0,29.87,SW,218,0.0,0.0,99,0.00,,,0.00,VWS V14.01,2013-03-17 03:00:00,
2013-03-16 23:05:00,30.2,30.0,29.87,SW,218,0.0,0.0,99,0.00,,SCT095,0.00,VWS V14.01,2013-03-17 03:05:00,
2013-03-16 23:10:00,30.2,29.7,29.87,SW,218,0.0,0.0,98,0.00,,SCT095,0.00,VWS V14.01,2013-03-17 03:10:00,
2013-03-16 23:15:00,30.2,30.0,29.88,SW,218,0.0,0.0,99,0.00,,SCT095,0.00,VWS V14.01,2013-03-17 03:15:00,
2013-03-16 23:20:00,30.2,30.0,29.88,SW,218,0.0,0.0,99,0.00,,SCT095,0.00,VWS V14.01,2013-03-17 03:20:00,
2013-03-16 23:25:00,30.2,30.0,29.88,SW,218,0.0,0.0,99,0.00,,SCT095,0.00,VWS V14.01,2013-03-17 03:25:00,
2013-03-16 23:30:00,30.2,30.0,29.88,SW,218,0.0,0.0,99,0.00,,SCT095,0.00,VWS V14.01,2013-03-17 03:30:00,
2013-03-16 23:35:00,30.2,30.0,29.88,SW,218,0.0,0.0,99,0.00,,SCT095,0.00,VWS V14.01,2013-03-17 03:35:00,
2013-03-16 23:40:00,30.2,30.0,29.88,SW,218,0.0,0.0,99,0.00,,SCT095,0.00,VWS V14.01,2013-03-17 03:40:00,
2013-03-16 23:45:00,30.3,30.0,29.88,SW,218,0.0,0.0,99,0.00,,SCT095,0.00,VWS V14.01,2013-03-17 03:45:00,
2013-03-16 23:50:00,30.2,30.0,29.88,SW,218,0.0,0.0,99,0.00,,SCT095,0.00,VWS V14.01,2013-03-17 03:50:00,
2013-03-16 23:55:00,30.2,29.7,29.88,SW,218,0.0,0.0,98,0.00,,SCT095,0.00,VWS V14.01,2013-03-17 03:55:00,